Time;durP1;ratioP1;P1;durP2;ratioP2;P2;SDS_P1;SDS_P2;PMS_P1;PMS_P2;Temp;Humidity;BMP_temperature;BMP_pressure;BME280_temperature;BME280_humidity;BME280_pressure;Samples;Min_cycle;Max_cycle;Signal;HPM_P1;HPM_P2
2022/09/15 00:01:04;;;;;;;1.20;1.10;;;22.80;62.60;;;;;;5057507;28;20194;-55
2022/09/15 00:03:32;;;;;;;1.00;1.00;;;22.80;62.60;;;;;;5075584;28;20555;-55
2022/09/15 00:05:58;;;;;;;1.55;1.10;;;22.80;62.60;;;;;;5075455;28;20209;-55
2022/09/15 00:08:26;;;;;;;1.02;1.00;;;22.80;62.50;;;;;;5057491;28;20256;-55
2022/09/15 00:10:56;;;;;;;0.98;0.98;;;22.80;62.60;;;;;;5057412;28;20214;-55
2022/09/15 00:13:23;;;;;;;1.45;0.98;;;22.80;62.60;;;;;;5075640;28;20171;-55
2022/09/15 00:15:50;;;;;;;0.90;0.90;;;22.80;62.50;;;;;;5057333;28;20198;-55
2022/09/15 00:18:17;;;;;;;1.83;1.00;;;22.80;62.50;;;;;;5075756;28;20195;-54
2022/09/15 00:20:45;;;;;;;1.10;1.10;;;22.80;62.50;;;;;;5075265;28;20560;-55
2022/09/15 00:23:13;;;;;;;1.52;1.25;;;22.80;62.50;;;;;;5075185;28;20218;-55
2022/09/15 00:25:44;;;;;;;1.63;1.10;;;22.80;62.50;;;;;;5075181;28;20221;-55
2022/09/15 00:28:14;;;;;;;1.02;1.02;;;22.80;62.50;;;;;;5075989;28;20194;-55
2022/09/15 00:30:42;;;;;;;1.05;1.05;;;22.80;62.50;;;;;;5075505;28;20189;-55
2022/09/15 00:33:09;;;;;;;1.40;1.30;;;22.80;62.40;;;;;;5075149;28;20210;-55
2022/09/15 00:35:38;;;;;;;1.77;1.30;;;22.80;62.40;;;;;;5076145;28;20218;-54
2022/09/15 00:38:06;;;;;;;1.38;1.10;;;22.80;62.40;;;;;;5074899;28;20210;-55
2022/09/15 00:40:34;;;;;;;1.15;1.05;;;22.80;62.40;;;;;;5056989;28;20194;-56
2022/09/15 00:43:00;;;;;;;1.45;1.00;;;22.80;63.20;;;;;;5057117;28;20248;-55
2022/09/15 00:45:29;;;;;;;1.20;1.10;;;22.80;62.30;;;;;;5074770;28;20199;-55
2022/09/15 00:47:56;;;;;;;1.08;1.08;;;22.80;62.30;;;;;;5074623;28;20228;-55
2022/09/15 00:50:24;;;;;;;1.17;1.08;;;22.80;62.30;;;;;;5075357;28;20628;-54
2022/09/15 00:52:53;;;;;;;2.13;1.10;;;22.80;62.30;;;;;;5074674;28;20218;-55
2022/09/15 00:55:24;;;;;;;1.25;1.02;;;22.80;62.60;;;;;;5074863;28;20186;-55
2022/09/15 00:57:53;;;;;;;1.27;1.05;;;22.80;63.10;;;;;;5056637;28;20195;-54
2022/09/15 01:00:22;;;;;;;1.15;1.05;;;22.80;62.30;;;;;;5074433;28;20664;-54
2022/09/15 01:02:50;;;;;;;1.20;1.10;;;22.80;62.30;;;;;;5074608;28;20211;-54
2022/09/15 01:05:20;;;;;;;0.85;0.85;;;22.80;62.30;;;;;;5074596;28;20210;-54
2022/09/15 01:07:50;;;;;;;1.00;1.00;;;22.80;62.30;;;;;;5056397;28;20301;-54
2022/09/15 01:10:19;;;;;;;1.20;1.10;;;22.80;62.30;;;;;;5056342;28;20202;-55
2022/09/15 01:12:46;;;;;;;1.85;1.10;;;22.80;62.30;;;;;;5056080;28;20226;-54
2022/09/15 01:15:14;;;;;;;1.20;1.10;;;22.70;62.20;;;;;;5056221;28;20638;-54
2022/09/15 01:17:52;;;;;;;1.17;1.10;;;22.80;62.30;;;;;;5056344;28;20205;-55
2022/09/15 01:20:56;;;;;;;1.00;1.00;;;22.80;62.30;;;;;;5056553;28;20551;-55
2022/09/15 01:23:47;;;;;;;1.25;1.15;;;22.70;62.20;;;;;;5052558;28;20293;-55
2022/09/15 01:26:30;;;;;;;1.38;1.10;;;22.70;62.20;;;;;;5007223;28;20585;-55
2022/09/15 01:29:10;;;;;;;1.95;1.17;;;22.70;62.20;;;;;;5073933;28;20624;-54
2022/09/15 01:33:02;;;;;;;1.05;0.98;;;22.70;62.20;;;;;;5056227;28;20215;-54
2022/09/15 01:34:26;;;;;;;1.10;1.00;;;22.70;62.20;;;;;;5073725;28;20195;-55
2022/09/15 01:36:55;;;;;;;1.17;1.08;;;22.70;62.20;;;;;;5073933;28;20272;-55
2022/09/15 01:39:24;;;;;;;0.95;0.95;;;22.70;62.30;;;;;;5055812;28;20199;-55
2022/09/15 01:41:54;;;;;;;1.88;1.20;;;22.70;62.20;;;;;;5055646;28;20591;-54
2022/09/15 01:44:23;;;;;;;2.00;1.30;;;22.70;62.30;;;;;;5073926;28;20187;-55
2022/09/15 01:46:54;;;;;;;1.10;1.00;;;22.70;62.20;;;;;;5073482;28;20195;-54
2022/09/15 01:49:22;;;;;;;1.10;1.00;;;22.70;62.20;;;;;;5055223;28;20208;-55
2022/09/15 01:51:50;;;;;;;1.00;1.00;;;22.70;62.30;;;;;;5073444;28;20217;-55
2022/09/15 01:54:18;;;;;;;1.00;1.00;;;22.70;62.20;;;;;;5055490;28;20195;-54
2022/09/15 01:56:45;;;;;;;1.63;0.90;;;22.70;62.20;;;;;;5055675;28;20205;-54
2022/09/15 01:59:13;;;;;;;1.08;1.00;;;22.70;62.20;;;;;;5055464;28;20202;-54
2022/09/15 02:01:43;;;;;;;0.98;0.98;;;22.70;62.30;;;;;;5055317;28;20216;-54
2022/09/15 02:04:14;;;;;;;1.10;1.00;;;22.70;62.30;;;;;;5073924;28;20183;-54
2022/09/15 02:06:44;;;;;;;1.30;0.90;;;22.70;62.30;;;;;;5055596;28;20623;-54
2022/09/15 02:09:12;;;;;;;1.50;1.08;;;22.70;62.30;;;;;;5073459;28;20197;-55
2022/09/15 02:11:44;;;;;;;1.17;1.00;;;22.70;62.30;;;;;;5073719;28;20213;-55
2022/09/15 02:14:16;;;;;;;1.10;1.10;;;22.70;62.40;;;;;;5073679;28;20232;-54
2022/09/15 02:16:45;;;;;;;1.20;1.10;;;22.70;62.40;;;;;;5055340;28;20214;-55
2022/09/15 02:19:17;;;;;;;1.20;1.10;;;22.70;62.40;;;;;;5055516;28;20276;-55
2022/09/15 02:21:52;;;;;;;1.20;1.10;;;22.60;63.20;;;;;;5073623;28;20273;-54
2022/09/15 02:24:22;;;;;;;1.20;1.10;;;22.70;62.50;;;;;;5055110;28;20186;-55
2022/09/15 02:26:49;;;;;;;1.70;1.10;;;22.60;62.40;;;;;;5073019;28;20201;-55
2022/09/15 02:29:18;;;;;;;1.75;1.10;;;22.60;62.40;;;;;;5073033;28;20202;-54
2022/09/15 02:31:45;;;;;;;1.15;1.08;;;22.60;62.40;;;;;;5073112;28;20268;-55
2022/09/15 02:34:16;;;;;;;1.30;1.20;;;22.60;62.40;;;;;;5055036;28;20622;-54
2022/09/15 02:36:43;;;;;;;0.88;0.88;;;22.60;62.40;;;;;;5055037;28;20203;-54
2022/09/15 02:39:13;;;;;;;0.93;0.93;;;22.60;63.20;;;;;;5072944;28;20560;-54
2022/09/15 02:41:40;;;;;;;1.20;1.20;;;22.60;62.40;;;;;;5073163;28;20233;-54
2022/09/15 02:44:08;;;;;;;0.95;0.95;;;22.60;62.50;;;;;;5072929;28;20195;-55
2022/09/15 02:46:35;;;;;;;1.15;1.00;;;22.60;62.50;;;;;;5073058;28;20191;-54
2022/09/15 02:49:02;;;;;;;1.13;1.10;;;22.60;63.20;;;;;;5055023;28;20191;-55
2022/09/15 02:51:30;;;;;;;1.25;1.15;;;22.60;62.40;;;;;;5054709;28;20268;-55
2022/09/15 02:53:58;;;;;;;0.90;0.90;;;22.60;62.40;;;;;;5072767;28;20191;-54
2022/09/15 02:56:25;;;;;;;1.10;1.10;;;22.60;62.50;;;;;;5073060;28;20194;-55
2022/09/15 02:58:52;;;;;;;1.35;1.15;;;22.60;62.40;;;;;;5072760;28;20193;-55
2022/09/15 03:01:18;;;;;;;2.47;1.35;;;22.60;62.40;;;;;;5056936;28;20313;-54
2022/09/15 03:03:46;;;;;;;1.00;1.00;;;22.60;62.40;;;;;;5076663;28;20187;-54
2022/09/15 03:06:16;;;;;;;2.47;1.20;;;22.50;62.40;;;;;;5076719;28;20226;-55
2022/09/15 03:08:47;;;;;;;1.98;1.00;;;22.60;62.50;;;;;;5058632;28;20209;-54
2022/09/15 03:11:14;;;;;;;2.45;1.20;;;22.60;62.80;;;;;;5077215;28;20214;-54
2022/09/15 03:13:41;;;;;;;1.30;1.20;;;22.60;63.00;;;;;;5076396;28;20210;-54
2022/09/15 03:16:09;;;;;;;1.13;0.95;;;22.60;62.90;;;;;;5058423;28;20734;-54
2022/09/15 03:18:36;;;;;;;1.20;1.10;;;22.60;62.80;;;;;;5058404;28;20668;-54
2022/09/15 03:21:04;;;;;;;1.40;1.10;;;22.60;62.60;;;;;;5076242;28;20273;-54
2022/09/15 03:23:32;;;;;;;1.35;1.25;;;22.60;62.50;;;;;;5076320;28;20179;-55
2022/09/15 03:26:00;;;;;;;1.15;1.10;;;22.70;62.50;;;;;;5076530;28;20194;-54
2022/09/15 03:28:28;;;;;;;1.45;1.05;;;22.70;62.20;;;;;;5076376;28;20195;-54
2022/09/15 03:30:55;;;;;;;1.58;1.00;;;22.80;62.10;;;;;;5076604;28;20182;-54
2022/09/15 03:33:23;;;;;;;2.03;1.33;;;22.80;61.80;;;;;;5076659;28;20695;-55
2022/09/15 03:35:50;;;;;;;1.33;1.23;;;22.90;61.60;;;;;;5076468;28;20191;-55
2022/09/15 03:38:18;;;;;;;1.10;1.10;;;22.90;61.60;;;;;;5076159;28;20248;-54
2022/09/15 03:40:45;;;;;;;1.60;1.17;;;23.00;61.50;;;;;;5076017;28;20542;-54
2022/09/15 03:43:13;;;;;;;0.90;0.90;;;23.00;61.30;;;;;;5076134;28;20321;-54
2022/09/15 03:45:40;;;;;;;1.20;1.10;;;23.00;61.00;;;;;;5075902;28;20183;-54
2022/09/15 03:48:07;;;;;;;1.25;1.10;;;23.00;61.00;;;;;;5075865;28;20202;-54
2022/09/15 03:50:34;;;;;;;1.30;1.05;;;23.10;61.00;;;;;;5076318;28;20197;-54
2022/09/15 03:53:01;;;;;;;1.05;0.98;;;23.10;60.90;;;;;;5075643;28;20242;-55
2022/09/15 03:55:29;;;;;;;1.17;1.15;;;23.10;60.90;;;;;;5057719;28;20201;-54
2022/09/15 03:57:56;;;;;;;1.00;0.90;;;23.10;60.80;;;;;;5057692;28;20198;-54
2022/09/15 04:00:25;;;;;;;1.65;1.20;;;23.10;60.80;;;;;;5076103;28;20240;-54
2022/09/15 04:02:52;;;;;;;3.50;1.00;;;23.10;60.80;;;;;;5075486;28;20722;-55
2022/09/15 04:05:19;;;;;;;2.25;1.02;;;23.10;60.80;;;;;;5075779;28;20191;-55
2022/09/15 04:07:47;;;;;;;1.17;0.93;;;23.10;60.70;;;;;;5075439;28;20198;-54
2022/09/15 04:10:14;;;;;;;1.27;1.00;;;23.10;60.80;;;;;;5075462;28;20191;-54
2022/09/15 04:12:41;;;;;;;1.13;1.13;;;23.10;60.70;;;;;;5056860;28;20697;-55
2022/09/15 04:15:09;;;;;;;1.25;1.15;;;23.10;60.70;;;;;;5057476;28;20630;-55
2022/09/15 04:17:38;;;;;;;1.20;1.02;;;23.10;60.60;;;;;;5075329;28;20244;-55
2022/09/15 04:20:06;;;;;;;2.75;1.13;;;23.10;60.60;;;;;;5075298;28;20785;-55
2022/09/15 04:22:33;;;;;;;1.15;0.90;;;23.10;60.70;;;;;;5075112;28;20203;-54
2022/09/15 04:25:00;;;;;;;1.63;1.27;;;23.10;60.70;;;;;;5075412;28;20195;-55
2022/09/15 04:27:27;;;;;;;1.88;1.00;;;23.10;60.70;;;;;;5057123;28;20206;-55
2022/09/15 04:29:55;;;;;;;1.30;1.17;;;23.10;60.60;;;;;;5057185;28;20195;-55
2022/09/15 04:32:22;;;;;;;1.58;1.10;;;23.10;60.70;;;;;;5074843;28;20221;-55
2022/09/15 04:34:52;;;;;;;1.02;0.90;;;23.10;60.70;;;;;;5057054;28;20195;-54
2022/09/15 04:37:19;;;;;;;0.90;0.90;;;23.10;60.70;;;;;;5074943;28;20191;-56
2022/09/15 04:39:45;;;;;;;2.50;1.35;;;23.10;60.60;;;;;;5075163;28;20191;-56
2022/09/15 04:42:12;;;;;;;2.67;1.55;;;23.10;60.40;;;;;;5074722;28;20700;-57
2022/09/15 04:44:39;;;;;;;1.38;1.20;;;23.00;60.40;;;;;;5074766;28;20557;-56
2022/09/15 04:47:06;;;;;;;2.15;1.27;;;23.00;60.50;;;;;;5056659;28;20594;-57
2022/09/15 04:49:34;;;;;;;1.70;1.25;;;23.00;61.40;;;;;;5074913;28;20213;-56
2022/09/15 04:52:02;;;;;;;1.92;1.40;;;23.00;60.40;;;;;;5056595;28;20257;-56
2022/09/15 04:54:30;;;;;;;1.63;1.33;;;22.90;60.40;;;;;;5058276;28;20225;-57
2022/09/15 04:56:57;;;;;;;1.85;1.30;;;22.90;60.50;;;;;;5068349;28;20202;-56
2022/09/15 04:59:24;;;;;;;1.50;1.15;;;22.90;60.80;;;;;;5050837;28;20550;-57
2022/09/15 05:01:53;;;;;;;1.27;1.05;;;22.90;60.90;;;;;;5048153;28;20223;-57
2022/09/15 05:04:20;;;;;;;1.70;1.10;;;22.90;60.90;;;;;;5074619;28;20195;-56
2022/09/15 05:06:47;;;;;;;2.22;1.38;;;22.90;61.00;;;;;;5056609;28;20234;-56
2022/09/15 05:09:16;;;;;;;1.77;1.25;;;22.80;61.10;;;;;;5074497;28;20193;-57
2022/09/15 05:11:43;;;;;;;1.67;1.17;;;22.80;61.30;;;;;;5071181;28;20217;-57
2022/09/15 05:14:10;;;;;;;1.90;1.10;;;22.80;61.10;;;;;;5069062;28;20219;-54
2022/09/15 05:16:38;;;;;;;1.42;1.33;;;22.80;61.30;;;;;;5058680;28;20755;-55
2022/09/15 05:19:05;;;;;;;2.72;1.50;;;22.80;61.10;;;;;;5045141;28;20239;-54
2022/09/15 05:21:33;;;;;;;2.25;1.08;;;22.80;61.10;;;;;;5048343;28;20231;-55
2022/09/15 05:24:00;;;;;;;1.58;1.10;;;22.70;61.00;;;;;;5051323;28;20195;-55
2022/09/15 05:26:28;;;;;;;1.73;1.10;;;22.70;61.00;;;;;;5052724;28;20575;-54
2022/09/15 05:28:57;;;;;;;2.42;1.10;;;22.70;61.10;;;;;;5052632;28;20192;-55
2022/09/15 05:31:25;;;;;;;1.30;1.20;;;22.80;61.30;;;;;;5052631;28;20223;-55
2022/09/15 05:33:52;;;;;;;1.20;1.10;;;22.70;61.40;;;;;;5053763;28;20215;-55
2022/09/15 05:36:22;;;;;;;2.30;1.20;;;22.70;61.10;;;;;;5052562;28;20211;-55
2022/09/15 05:38:49;;;;;;;1.30;1.20;;;22.70;61.10;;;;;;5051677;28;20298;-54
2022/09/15 05:41:17;;;;;;;2.55;1.20;;;22.70;61.20;;;;;;5053323;28;20222;-54
2022/09/15 05:43:46;;;;;;;1.33;1.10;;;22.70;61.20;;;;;;5035760;28;20195;-55
2022/09/15 05:46:13;;;;;;;1.23;1.10;;;22.70;61.30;;;;;;5053698;28;20187;-55
2022/09/15 05:48:41;;;;;;;1.08;1.05;;;22.70;61.40;;;;;;5053476;28;20191;-55
2022/09/15 05:51:08;;;;;;;1.65;1.10;;;22.70;61.40;;;;;;5053475;28;20261;-54
2022/09/15 05:53:35;;;;;;;2.25;1.20;;;22.70;61.50;;;;;;5053358;28;20203;-55
2022/09/15 05:56:04;;;;;;;1.13;1.02;;;22.70;61.60;;;;;;5053678;28;20195;-54
2022/09/15 05:58:31;;;;;;;1.60;1.10;;;22.70;61.60;;;;;;5035722;28;20200;-56
2022/09/15 06:01:03;;;;;;;3.00;1.20;;;22.70;61.60;;;;;;5053417;28;20191;-55
2022/09/15 06:03:30;;;;;;;1.90;1.30;;;22.70;61.60;;;;;;5053415;28;20172;-55
2022/09/15 06:06:00;;;;;;;1.48;0.90;;;22.70;61.60;;;;;;5053601;28;20195;-55
2022/09/15 06:08:30;;;;;;;1.83;1.17;;;22.70;61.50;;;;;;5035517;28;20210;-55
2022/09/15 06:11:01;;;;;;;1.42;1.27;;;22.70;61.50;;;;;;5053306;28;20191;-55
2022/09/15 06:13:28;;;;;;;1.15;0.95;;;22.80;61.50;;;;;;5053530;28;20210;-55
2022/09/15 06:16:01;;;;;;;1.58;1.13;;;22.90;61.50;;;;;;5053613;28;20195;-55
2022/09/15 06:18:28;;;;;;;1.50;1.20;;;22.90;61.30;;;;;;5053928;28;20179;-55
2022/09/15 06:20:55;;;;;;;1.00;1.00;;;22.90;60.90;;;;;;5053278;28;20202;-55
2022/09/15 06:23:22;;;;;;;1.25;1.15;;;23.00;60.90;;;;;;5053177;28;20192;-55
2022/09/15 06:25:49;;;;;;;1.23;1.10;;;23.00;60.70;;;;;;5053191;28;20560;-55
2022/09/15 06:28:16;;;;;;;2.35;1.10;;;23.00;60.40;;;;;;5035533;28;20199;-54
2022/09/15 06:30:47;;;;;;;1.30;1.00;;;23.10;60.40;;;;;;5036054;28;20199;-54
2022/09/15 06:33:16;;;;;;;3.15;1.08;;;23.10;60.30;;;;;;5053233;28;20211;-55
2022/09/15 06:35:42;;;;;;;1.42;0.90;;;23.10;60.10;;;;;;5040303;28;20202;-55
2022/09/15 06:38:10;;;;;;;0.85;0.85;;;23.10;60.00;;;;;;5060401;28;20219;-56
2022/09/15 06:40:37;;;;;;;1.00;1.00;;;23.20;60.00;;;;;;5059871;28;20183;-55
2022/09/15 06:43:04;;;;;;;1.52;1.20;;;23.20;60.00;;;;;;5058340;28;20219;-55
2022/09/15 06:45:31;;;;;;;1.10;1.00;;;23.20;60.00;;;;;;5059671;28;20187;-55
2022/09/15 06:47:59;;;;;;;0.95;0.90;;;23.20;60.00;;;;;;5059757;28;20257;-55
2022/09/15 06:50:27;;;;;;;1.85;1.00;;;23.20;60.00;;;;;;5059713;28;20560;-55
2022/09/15 06:52:54;;;;;;;1.30;1.08;;;23.20;59.80;;;;;;5059399;28;20230;-55
2022/09/15 06:55:21;;;;;;;1.15;1.00;;;23.30;59.90;;;;;;5059466;28;20190;-55
2022/09/15 06:57:49;;;;;;;0.85;0.85;;;23.30;59.80;;;;;;5041570;28;20232;-55
2022/09/15 07:00:17;;;;;;;1.48;1.10;;;23.30;59.80;;;;;;5059707;28;20195;-55
2022/09/15 07:02:44;;;;;;;1.60;1.00;;;23.30;59.80;;;;;;5041444;28;20704;-55
2022/09/15 07:05:11;;;;;;;1.58;1.05;;;23.30;59.80;;;;;;5059927;28;20187;-55
2022/09/15 07:07:40;;;;;;;1.50;1.00;;;23.30;59.80;;;;;;5041458;28;20202;-55
2022/09/15 07:10:09;;;;;;;2.65;1.10;;;23.30;59.80;;;;;;5041320;28;20643;-54
2022/09/15 07:12:36;;;;;;;0.88;0.85;;;23.30;59.80;;;;;;5059195;28;20211;-55
2022/09/15 07:15:04;;;;;;;1.70;0.88;;;23.30;59.80;;;;;;5041243;28;20269;-55
2022/09/15 07:17:31;;;;;;;1.45;1.10;;;23.30;59.80;;;;;;5041409;28;20245;-58
2022/09/15 07:19:59;;;;;;;0.95;0.90;;;23.30;59.80;;;;;;5059314;28;20188;-55
2022/09/15 07:22:26;;;;;;;0.80;0.80;;;23.30;59.80;;;;;;5059170;28;20203;-55
2022/09/15 07:24:54;;;;;;;0.98;0.90;;;23.30;59.90;;;;;;5059184;28;20270;-55
2022/09/15 07:27:25;;;;;;;1.90;1.10;;;23.30;59.90;;;;;;5059143;28;20200;-55
2022/09/15 07:29:54;;;;;;;0.80;0.80;;;23.30;60.00;;;;;;5041210;28;20210;-55
2022/09/15 07:32:21;;;;;;;1.00;0.90;;;23.30;59.90;;;;;;5059057;28;20219;-55
2022/09/15 07:34:48;;;;;;;1.08;0.98;;;23.30;59.80;;;;;;5041117;28;20223;-55
2022/09/15 07:37:15;;;;;;;1.58;1.10;;;23.30;59.90;;;;;;5059383;28;20205;-55
2022/09/15 07:39:42;;;;;;;2.17;1.00;;;23.30;60.00;;;;;;5041087;28;20202;-55
2022/09/15 07:42:11;;;;;;;1.92;1.17;;;23.30;59.90;;;;;;5058906;28;20211;-55
2022/09/15 07:44:38;;;;;;;1.52;1.00;;;23.30;59.90;;;;;;5041057;28;20191;-55
2022/09/15 07:47:05;;;;;;;1.20;1.05;;;23.30;59.90;;;;;;5038055;28;20203;-55
2022/09/15 07:49:33;;;;;;;1.45;0.95;;;23.30;59.80;;;;;;5056020;28;20187;-55
2022/09/15 07:52:00;;;;;;;1.63;1.10;;;23.30;59.80;;;;;;5037840;28;20219;-55
2022/09/15 07:54:27;;;;;;;1.13;1.00;;;23.30;59.80;;;;;;5037782;28;20235;-55
2022/09/15 07:56:54;;;;;;;3.33;1.20;;;23.30;59.80;;;;;;5055644;28;20238;-55
2022/09/15 07:59:23;;;;;;;1.63;1.30;;;23.30;60.50;;;;;;5055654;28;20230;-55
2022/09/15 08:01:50;;;;;;;1.85;1.10;;;23.30;59.80;;;;;;5037590;28;20216;-55
2022/09/15 08:04:17;;;;;;;1.35;1.10;;;23.30;59.90;;;;;;5055574;28;20188;-55
2022/09/15 08:06:44;;;;;;;1.20;1.10;;;23.30;59.90;;;;;;5055692;28;20661;-55
2022/09/15 08:09:13;;;;;;;0.90;0.90;;;23.30;59.90;;;;;;5055545;28;20184;-55
2022/09/15 08:11:40;;;;;;;1.20;1.02;;;23.30;60.00;;;;;;5055431;28;20290;-56
2022/09/15 08:14:08;;;;;;;1.73;1.17;;;23.30;60.00;;;;;;5055351;28;20265;-57
2022/09/15 08:16:36;;;;;;;1.83;1.05;;;23.20;60.00;;;;;;5037383;28;20195;-55
2022/09/15 08:19:04;;;;;;;1.10;1.00;;;23.20;60.10;;;;;;5037502;28;20683;-55
2022/09/15 08:21:31;;;;;;;1.30;0.82;;;23.20;60.20;;;;;;5037354;28;20709;-55
2022/09/15 08:24:00;;;;;;;1.33;1.00;;;23.20;60.30;;;;;;5037673;28;20281;-55
2022/09/15 08:26:27;;;;;;;2.00;1.00;;;23.10;60.30;;;;;;5055093;28;20199;-55
2022/09/15 08:28:55;;;;;;;1.30;1.20;;;23.10;60.30;;;;;;5055383;28;20187;-55
2022/09/15 08:31:22;;;;;;;1.70;1.10;;;23.10;60.40;;;;;;5037156;28;20222;-55
2022/09/15 08:33:51;;;;;;;2.15;1.08;;;23.10;60.50;;;;;;5054938;28;20269;-55
2022/09/15 08:36:19;;;;;;;0.80;0.75;;;23.10;60.70;;;;;;5054920;28;20192;-55
2022/09/15 08:38:46;;;;;;;1.38;1.10;;;23.10;60.50;;;;;;5054950;28;20274;-55
2022/09/15 08:41:15;;;;;;;1.25;1.15;;;23.10;60.50;;;;;;5054813;28;20196;-55
2022/09/15 08:43:46;;;;;;;1.27;1.05;;;23.20;60.70;;;;;;5037035;28;20191;-55
2022/09/15 08:46:15;;;;;;;1.20;1.00;;;23.20;60.70;;;;;;5054844;28;20241;-55
2022/09/15 08:48:44;;;;;;;1.50;0.90;;;23.30;60.60;;;;;;5036894;28;20289;-55
2022/09/15 08:51:18;;;;;;;1.35;1.10;;;23.30;60.40;;;;;;5054999;28;20211;-55
2022/09/15 08:53:46;;;;;;;0.80;0.80;;;23.30;60.20;;;;;;5036729;28;20302;-55
2022/09/15 08:56:15;;;;;;;1.00;0.95;;;23.40;60.20;;;;;;5054936;28;20657;-55
2022/09/15 08:58:43;;;;;;;1.70;1.20;;;23.40;60.20;;;;;;5053456;28;20570;-55
2022/09/15 09:01:18;;;;;;;1.00;0.90;;;23.40;60.00;;;;;;5036660;28;20253;-55
2022/09/15 09:03:59;;;;;;;1.20;0.93;;;23.50;60.10;;;;;;5054884;28;20199;-56
2022/09/15 09:06:31;;;;;;;1.48;1.05;;;23.50;60.00;;;;;;5054825;28;20636;-56
2022/09/15 09:09:03;;;;;;;1.10;1.10;;;23.50;60.00;;;;;;5054511;28;20743;-55
2022/09/15 09:11:37;;;;;;;1.38;1.10;;;23.50;59.90;;;;;;5054459;28;20268;-55
2022/09/15 09:14:07;;;;;;;1.00;1.00;;;23.50;59.90;;;;;;5054956;28;20200;-55
2022/09/15 09:16:44;;;;;;;1.13;0.90;;;23.60;60.00;;;;;;5054592;28;20215;-55
2022/09/15 09:19:23;;;;;;;1.40;1.10;;;23.60;59.90;;;;;;5054253;28;20550;-55
2022/09/15 09:21:53;;;;;;;3.33;1.00;;;23.60;59.90;;;;;;5052892;28;20219;-55
2022/09/15 09:24:26;;;;;;;0.80;0.80;;;23.60;59.90;;;;;;5054071;28;20186;-55
2022/09/15 09:26:54;;;;;;;1.80;1.00;;;23.70;59.80;;;;;;5054118;28;20595;-55
2022/09/15 09:29:26;;;;;;;1.48;1.00;;;23.60;59.70;;;;;;5053901;28;20241;-55
2022/09/15 09:31:54;;;;;;;1.42;0.80;;;23.60;59.70;;;;;;5035990;28;20238;-55
2022/09/15 09:34:25;;;;;;;1.33;1.10;;;23.70;59.80;;;;;;5036490;28;20215;-55
2022/09/15 09:36:55;;;;;;;1.15;0.98;;;23.70;59.80;;;;;;5035973;28;20211;-55
2022/09/15 09:39:22;;;;;;;2.72;1.13;;;23.70;59.80;;;;;;5035832;28;20298;-55
2022/09/15 09:41:50;;;;;;;1.30;1.10;;;23.70;59.70;;;;;;5053758;28;20211;-55
2022/09/15 09:44:17;;;;;;;1.55;0.90;;;23.70;59.60;;;;;;5053694;28;20187;-55
2022/09/15 09:46:45;;;;;;;1.00;1.00;;;23.80;59.70;;;;;;5035681;28;20290;-55
2022/09/15 09:49:15;;;;;;;1.00;0.90;;;23.80;59.60;;;;;;5053787;28;20186;-55
2022/09/15 09:51:51;;;;;;;1.75;1.15;;;23.80;59.60;;;;;;5054001;28;20221;-55
2022/09/15 09:54:20;;;;;;;1.10;0.93;;;23.80;60.20;;;;;;5035843;28;20279;-55
2022/09/15 09:56:48;;;;;;;1.02;0.93;;;23.80;59.60;;;;;;5056102;28;20184;-55
2022/09/15 09:59:33;;;;;;;1.00;0.90;;;23.80;59.60;;;;;;5037610;28;20219;-55
2022/09/15 10:02:12;;;;;;;1.63;1.08;;;23.80;59.70;;;;;;5054336;28;20215;-56
2022/09/15 10:04:40;;;;;;;1.10;0.85;;;23.80;59.80;;;;;;5054089;28;20172;-55
2022/09/15 10:07:07;;;;;;;1.35;1.23;;;23.80;59.80;;;;;;5035834;28;20195;-55
2022/09/15 10:09:35;;;;;;;0.90;0.90;;;23.70;59.60;;;;;;5035346;28;20580;-55
2022/09/15 10:12:03;;;;;;;1.02;0.80;;;23.70;59.60;;;;;;5053279;28;20226;-55
2022/09/15 10:14:31;;;;;;;1.60;1.00;;;23.70;59.60;;;;;;5053314;28;20195;-55
2022/09/15 10:17:00;;;;;;;1.52;1.00;;;23.70;60.30;;;;;;5035298;28;20728;-55
2022/09/15 10:19:27;;;;;;;1.00;0.90;;;23.70;59.70;;;;;;5053084;28;20191;-55
2022/09/15 10:21:55;;;;;;;1.45;1.20;;;23.70;59.80;;;;;;5053286;28;20282;-56
2022/09/15 10:24:41;;;;;;;1.40;0.80;;;23.70;59.90;;;;;;5053395;28;20184;-55
2022/09/15 10:27:16;;;;;;;1.17;1.08;;;23.70;60.00;;;;;;5073682;23;20222;-67
2022/09/15 10:29:43;;;;;;;1.13;1.02;;;23.70;59.90;;;;;;5055012;28;20220;-66
2022/09/15 10:32:16;;;;;;;1.58;0.85;;;23.70;60.00;;;;;;5056267;28;20569;-66
2022/09/15 10:34:43;;;;;;;0.98;0.90;;;23.70;60.00;;;;;;5073420;28;20210;-66
2022/09/15 10:37:15;;;;;;;0.82;0.75;;;23.70;60.00;;;;;;5055279;28;20201;-66
2022/09/15 10:39:51;;;;;;;1.67;0.90;;;23.70;59.90;;;;;;5073542;28;20285;-67
2022/09/15 10:42:23;;;;;;;1.15;0.82;;;23.60;59.80;;;;;;5055271;28;20189;-66
2022/09/15 10:44:54;;;;;;;1.48;0.90;;;23.70;59.80;;;;;;5055172;28;20675;-66
2022/09/15 10:47:26;;;;;;;1.27;1.17;;;23.60;59.80;;;;;;5055235;28;20186;-66
2022/09/15 10:50:01;;;;;;;1.38;1.00;;;23.60;59.90;;;;;;5055021;28;20297;-66
2022/09/15 10:52:32;;;;;;;0.73;0.73;;;23.60;60.00;;;;;;5055158;28;20194;-66
2022/09/15 10:55:20;;;;;;;1.40;1.00;;;23.60;60.10;;;;;;5072927;28;20683;-65
2022/09/15 10:57:58;;;;;;;1.08;0.70;;;23.60;60.00;;;;;;5055221;28;20186;-66
2022/09/15 11:00:25;;;;;;;0.93;0.90;;;23.60;59.90;;;;;;5055049;28;20198;-66
2022/09/15 11:03:18;;;;;;;1.10;1.02;;;23.60;59.80;;;;;;5072926;28;20221;-66
2022/09/15 11:05:50;;;;;;;0.98;0.95;;;23.50;59.90;;;;;;5073160;28;20179;-66
2022/09/15 11:08:46;;;;;;;1.05;0.88;;;23.50;60.00;;;;;;5072828;28;20217;-66
2022/09/15 11:11:17;;;;;;;2.38;0.88;;;23.50;60.10;;;;;;5056119;28;20281;-66
2022/09/15 11:13:51;;;;;;;0.80;0.80;;;23.50;60.20;;;;;;5054913;28;20718;-66
2022/09/15 11:16:29;;;;;;;1.08;0.95;;;23.50;60.40;;;;;;5072878;28;20195;-66
2022/09/15 11:19:04;;;;;;;1.30;1.00;;;23.50;60.40;;;;;;5054795;28;20268;-66
2022/09/15 11:21:33;;;;;;;1.30;1.00;;;23.50;60.30;;;;;;5073855;28;20257;-66
2022/09/15 11:24:16;;;;;;;0.70;0.70;;;23.50;60.30;;;;;;5076833;28;20273;-67
2022/09/15 11:26:46;;;;;;;0.98;0.88;;;23.50;60.30;;;;;;5058649;28;20210;-67
2022/09/15 11:29:15;;;;;;;1.00;0.90;;;23.60;60.10;;;;;;5076866;28;20202;-67
2022/09/15 11:31:43;;;;;;;0.80;0.77;;;23.60;60.00;;;;;;5058570;28;20683;-66
2022/09/15 11:34:13;;;;;;;1.45;0.70;;;23.60;59.90;;;;;;5058628;28;20273;-66
2022/09/15 11:36:42;;;;;;;0.80;0.80;;;23.70;59.80;;;;;;5058993;28;20237;-68
2022/09/15 11:39:12;;;;;;;1.05;0.98;;;23.70;59.70;;;;;;5076341;28;20202;-67
2022/09/15 11:41:41;;;;;;;0.95;0.88;;;23.60;59.60;;;;;;5088629;22;20700;-58
2022/09/15 11:44:16;;;;;;;0.93;0.80;;;23.70;59.60;;;;;;5097428;28;20240;-58
2022/09/15 11:47:00;;;;;;;1.15;1.00;;;23.70;59.60;;;;;;5087989;22;20229;-67
2022/09/15 11:49:29;;;;;;;0.98;0.88;;;23.70;59.60;;;;;;5074942;28;20637;-66
2022/09/15 11:51:58;;;;;;;0.70;0.70;;;23.70;59.60;;;;;;5075116;28;20205;-68
2022/09/15 11:54:28;;;;;;;1.58;1.00;;;23.70;59.50;;;;;;5074809;28;20610;-68
2022/09/15 11:56:55;;;;;;;2.08;1.00;;;23.70;59.40;;;;;;5074553;28;20209;-66
2022/09/15 11:59:27;;;;;;;1.30;0.95;;;23.70;59.30;;;;;;5075942;28;20260;-66
2022/09/15 12:01:57;;;;;;;1.00;0.95;;;23.70;59.20;;;;;;5076058;28;20175;-66
2022/09/15 12:04:27;;;;;;;1.13;1.00;;;23.80;59.20;;;;;;5074501;28;20226;-66
2022/09/15 12:06:57;;;;;;;1.00;1.00;;;23.80;59.10;;;;;;5075818;28;20190;-66
2022/09/15 12:09:23;;;;;;;1.00;0.90;;;23.80;59.00;;;;;;5075644;28;20210;-66
2022/09/15 12:11:52;;;;;;;1.27;1.20;;;23.80;59.00;;;;;;5074755;28;20220;-66
2022/09/15 12:14:27;;;;;;;1.52;1.10;;;23.80;58.90;;;;;;5075648;28;20187;-66
2022/09/15 12:16:54;;;;;;;1.10;1.00;;;23.80;58.80;;;;;;5074563;28;20232;-67
2022/09/15 12:19:33;;;;;;;1.50;0.98;;;23.80;58.80;;;;;;5074259;28;20222;-66
2022/09/15 12:22:01;;;;;;;1.48;1.10;;;23.80;58.80;;;;;;5074656;28;20205;-66
2022/09/15 12:24:32;;;;;;;2.15;1.20;;;23.80;58.70;;;;;;5074698;28;20290;-66
2022/09/15 12:26:59;;;;;;;1.13;1.02;;;23.80;58.70;;;;;;5074215;28;20618;-66
2022/09/15 12:29:38;;;;;;;1.25;1.13;;;23.90;58.70;;;;;;5074109;28;20246;-66
2022/09/15 12:32:19;;;;;;;1.50;1.10;;;23.90;58.60;;;;;;5073773;28;20198;-66
2022/09/15 12:34:57;;;;;;;1.05;0.95;;;23.90;58.50;;;;;;5075115;28;20221;-66
2022/09/15 12:37:25;;;;;;;1.20;1.20;;;23.90;58.50;;;;;;5073951;28;20272;-66
2022/09/15 12:39:51;;;;;;;2.85;1.15;;;23.90;58.60;;;;;;5073840;28;20229;-66
2022/09/15 12:42:20;;;;;;;1.25;1.15;;;23.90;58.30;;;;;;5074130;28;20190;-66
2022/09/15 12:44:50;;;;;;;1.48;1.17;;;23.90;58.80;;;;;;5075090;28;20198;-66
2022/09/15 12:47:28;;;;;;;2.58;1.25;;;24.00;58.20;;;;;;5073756;28;20252;-66
2022/09/15 12:49:56;;;;;;;1.40;1.30;;;24.00;58.10;;;;;;5073677;28;20222;-66
2022/09/15 12:52:23;;;;;;;1.50;1.40;;;24.00;57.90;;;;;;5074764;28;20191;-66
2022/09/15 12:54:53;;;;;;;2.20;1.20;;;24.00;58.00;;;;;;5073471;28;20204;-66
2022/09/15 12:57:23;;;;;;;1.70;1.20;;;24.00;58.00;;;;;;5074795;28;20194;-66
2022/09/15 13:00:07;;;;;;;1.27;1.02;;;24.00;58.00;;;;;;5073547;28;20222;-66